Terminal Aerodrome Forecast
Issued by NWS

Home | Current Version | Previous Version | Text Only | Print | Product List | Glossary On
Versions: 1 2 3 4 5 6 7 8 9 10 11 12 13 14 15 16 17
201
FTUS45 KGJT 221731
TAFEGE
TAF
KEGE 221731Z 2218/2318 00000KT P6SM VCSH BKN050 OVC080
     FM221900 22012G18KT P6SM VCTS SCT080CB BKN110
     FM230000 21004KT P6SM -SHRA SCT040 BKN060
     FM230400 11004KT P6SM VCSH FEW050 BKN070
     FM231000 00000KT P6SM VCSH FEW050 BKN070=

USA.gov is the U.S. government's official web portal to all federal, state and local government web resources and services.